Time;durP1;ratioP1;P1;durP2;ratioP2;P2;SDS_P1;SDS_P2;PMS_P1;PMS_P2;Temp;Humidity;BMP_temperature;BMP_pressure;BME280_temperature;BME280_humidity;BME280_pressure;Samples;Min_cycle;Max_cycle;Signal;HPM_P1;HPM_P2
2023/12/20 12:06:07;;;;;;;8.52;4.65;;;;;;;;;;4798453;29;20122;-82
2023/12/20 12:08:37;;;;;;;8.52;4.57;;;;;;;;;;4764281;30;20544;-82
2023/12/20 12:11:03;;;;;;;7.45;4.65;;;;;;;;;;4767889;30;20044;-82
2023/12/20 12:39:39;;;;;;;8.23;4.07;;;;;;;;;;4715450;30;20045;-81
2023/12/20 12:42:05;;;;;;;10.90;4.70;;;;;;;;;;4727303;30;20577;-81
2023/12/20 12:44:31;;;;;;;7.88;3.28;;;;;;;;;;4731386;30;20492;-80
2023/12/20 12:47:00;;;;;;;4.68;3.90;;;;;;;;;;4731428;30;20053;-82
2023/12/20 12:49:29;;;;;;;10.38;4.85;;;;;;;;;;4760064;29;20059;-82
2023/12/20 12:52:26;;;;;;;9.90;5.00;;;;;;;;;;4825936;29;20520;-84
2023/12/20 13:07:25;;;;;;;;;;;;;;;;;;4766766;30;20158;-82
2023/12/20 13:27:27;;;;;;;4.85;2.00;;;;;;;;;;4749548;30;20117;-80
2023/12/20 13:29:56;;;;;;;4.28;2.03;;;;;;;;;;4783460;29;20504;-80
2023/12/20 13:32:33;;;;;;;8.25;2.85;;;;;;;;;;4822888;29;20090;-80
2023/12/20 13:35:15;;;;;;;7.03;2.80;;;;;;;;;;4811326;29;20047;-83
2023/12/20 13:37:50;;;;;;;;;;;;;;;;;;4801241;29;20370;-84
2023/12/20 13:53:31;;;;;;;6.47;3.35;;;;;;;;;;4748390;30;20511;-83
2023/12/20 13:56:37;;;;;;;6.07;3.03;;;;;;;;;;4798094;29;20051;-82
2023/12/20 14:08:48;;;;;;;3.97;2.10;;;;;;;;;;4803803;29;20093;-83
2023/12/20 14:14:22;;;;;;;10.88;4.30;;;;;;;;;;4735121;30;20040;-83
2023/12/20 14:16:48;;;;;;;7.07;1.98;;;;;;;;;;4780185;29;20049;-83
2023/12/20 14:22:09;;;;;;;5.70;3.17;;;;;;;;;;4788991;29;20070;-83
2023/12/20 14:24:38;;;;;;;6.82;3.05;;;;;;;;;;4802731;29;20133;-84
2023/12/20 14:27:04;;;;;;;6.38;3.13;;;;;;;;;;4791133;29;20047;-81
2023/12/20 14:29:30;;;;;;;8.13;4.32;;;;;;;;;;4802145;29;20050;-82
2023/12/20 14:31:56;;;;;;;6.90;3.38;;;;;;;;;;4806676;29;20042;-83
2023/12/20 14:34:23;;;;;;;10.38;3.22;;;;;;;;;;4802445;29;20039;-84
2023/12/20 14:36:49;;;;;;;7.43;2.25;;;;;;;;;;4801092;29;20038;-81
2023/12/20 14:39:17;;;;;;;4.63;2.97;;;;;;;;;;4786319;29;20768;-81
2023/12/20 14:41:43;;;;;;;6.40;3.42;;;;;;;;;;4804290;29;20046;-83
2023/12/20 14:44:13;;;;;;;17.65;3.10;;;;;;;;;;4806975;29;20053;-83
2023/12/20 14:46:39;;;;;;;10.98;3.25;;;;;;;;;;4792851;29;20047;-83
2023/12/20 14:49:05;;;;;;;8.48;3.35;;;;;;;;;;4808025;29;20383;-84
2023/12/20 14:51:31;;;;;;;2.75;2.15;;;;;;;;;;4823811;29;20085;-83
2023/12/20 14:53:57;;;;;;;7.20;2.40;;;;;;;;;;4805028;29;20092;-82
2023/12/20 14:56:25;;;;;;;5.40;2.92;;;;;;;;;;4794515;29;20528;-83
2023/12/20 14:58:51;;;;;;;6.45;2.35;;;;;;;;;;4814062;29;20443;-83
2023/12/20 15:01:21;;;;;;;8.45;3.03;;;;;;;;;;4789512;29;20043;-80
2023/12/20 15:03:48;;;;;;;10.93;2.80;;;;;;;;;;4808156;29;20042;-80
2023/12/20 15:06:14;;;;;;;13.63;3.40;;;;;;;;;;4809724;29;20431;-81
2023/12/20 15:08:40;;;;;;;6.18;1.80;;;;;;;;;;4800567;29;20059;-81
2023/12/20 15:11:06;;;;;;;4.68;2.00;;;;;;;;;;4806969;29;20051;-81
2023/12/20 15:13:32;;;;;;;4.80;2.08;;;;;;;;;;4789363;29;20050;-81
2023/12/20 15:15:58;;;;;;;5.10;2.28;;;;;;;;;;4789107;29;20481;-81
2023/12/20 15:18:24;;;;;;;5.93;1.98;;;;;;;;;;4785280;30;20055;-82
2023/12/20 15:20:50;;;;;;;3.30;1.77;;;;;;;;;;4803829;29;20099;-82
2023/12/20 15:23:17;;;;;;;2.33;1.48;;;;;;;;;;4794708;29;20134;-82
2023/12/20 15:25:43;;;;;;;4.60;2.17;;;;;;;;;;4789141;29;20628;-81
2023/12/20 15:28:10;;;;;;;1.77;1.42;;;;;;;;;;4801819;29;20043;-81
2023/12/20 15:30:37;;;;;;;1.83;1.13;;;;;;;;;;4813675;29;20082;-81
2023/12/20 15:33:03;;;;;;;3.33;1.65;;;;;;;;;;4805981;29;20075;-82
2023/12/20 15:35:30;;;;;;;2.35;2.13;;;;;;;;;;4804818;29;20046;-82
2023/12/20 15:40:32;;;;;;;2.38;1.70;;;;;;;;;;3852683;24;20050;-81
2023/12/20 15:42:59;;;;;;;3.00;1.73;;;;;;;;;;4799021;29;20096;-81
2023/12/20 15:45:25;;;;;;;4.60;2.13;;;;;;;;;;4789695;29;20047;-82
2023/12/20 15:47:53;;;;;;;2.78;1.50;;;;;;;;;;4804796;29;20176;-82
2023/12/20 15:53:50;;;;;;;5.28;2.20;;;;;;;;;;4707722;30;20053;-84
2023/12/20 15:56:19;;;;;;;1.95;1.10;;;;;;;;;;4769994;29;20062;-82
2023/12/20 15:58:48;;;;;;;4.60;1.67;;;;;;;;;;5178565;24;20448;-84
2023/12/20 16:01:45;;;;;;;2.63;2.03;;;;;;;;;;4805339;29;20153;-86
2023/12/20 16:04:32;;;;;;;2.35;1.38;;;;;;;;;;4791726;29;20388;-83
2023/12/20 16:07:01;;;;;;;1.90;1.55;;;;;;;;;;4803193;24;20075;-83
2023/12/20 16:09:53;;;;;;;0.70;0.45;;;;;;;;;;4822100;29;20042;-83
2023/12/20 16:13:10;;;;;;;;;;;;;;;;;;;;;
2023/12/20 16:25:16;;;;;;;1.65;0.95;;;;;;;;;;4743065;30;20174;-83
2023/12/20 16:44:56;;;;;;;2.38;0.68;;;;;;;;;;4608983;24;20115;-82
2023/12/20 17:01:52;;;;;;;1.58;0.85;;;;;;;;;;4802834;29;20061;-84
2023/12/20 17:04:21;;;;;;;4.43;1.40;;;;;;;;;;4787416;29;20386;-81
2023/12/20 17:07:03;;;;;;;;;;;;;;;;;;;;;
2023/12/20 17:10:03;;;;;;;0.60;0.13;;;;;;;;;;4728136;30;20060;-79
2023/12/20 17:12:34;;;;;;;0.25;0.10;;;;;;;;;;4712440;30;20057;-80
2023/12/20 17:30:34;;;;;;;3.25;1.02;;;;;;;;;;4798539;29;20054;-81
2023/12/20 19:07:59;;;;;;;8.10;3.00;;;;;;;;;;4744139;29;20072;-82
2023/12/20 19:10:25;;;;;;;3.70;2.38;;;;;;;;;;4742587;30;20056;-82
2023/12/20 19:12:53;;;;;;;9.65;2.22;;;;;;;;;;4748639;30;20065;-81
2023/12/20 19:15:25;;;;;;;4.97;2.03;;;;;;;;;;4748510;30;20824;-81
2023/12/20 19:17:53;;;;;;;3.78;2.42;;;;;;;;;;4740636;30;20044;-81
2023/12/20 19:20:22;;;;;;;3.40;1.92;;;;;;;;;;4743107;30;20040;-82
2023/12/20 19:23:11;;;;;;;;;;;;;;;;;;;;;
2023/12/20 19:26:09;;;;;;;5.68;3.00;;;;;;;;;;4731298;30;20059;-82
2023/12/20 19:28:36;;;;;;;5.88;2.85;;;;;;;;;;4798114;24;20053;-80
2023/12/20 19:31:05;;;;;;;8.45;3.45;;;;;;;;;;4793473;29;20443;-80
2023/12/20 19:34:00;;;;;;;5.40;3.15;;;;;;;;;;4808300;29;20581;-80
2023/12/20 19:36:26;;;;;;;4.55;2.97;;;;;;;;;;4779158;29;20078;-80
2023/12/20 19:42:20;;;;;;;9.77;3.72;;;;;;;;;;4750564;30;20448;-81
